Skip to main content

NOAA/GLERL Met Station at Chicago, IL

Previous 3 Hours (2 minute increments)
See also Previous 5 Days (top of hour)
Jump down to Data
Switch to [English][Metric]
Zoom: Click and drag, Pan: shift-click and drag, Unzoom: double-click, Unzoom All




See also 1-day windrose plot


NOAA/GLERL Met Station at Chicago, IL

Previous 3 Hours (2 minute increments)
See also Previous 5 Days (top of hour only)
Jump up to Graphs
Switch to [English][Metric]
                  Wind  Wind  Wind   Air   Dew   Rel
                   Spd   Gst   Dir  Temp    Pt   Hum
YYYY-MM-DD   CDT   kts   kts   deg     F     F     %
2017-03-23 11:06  15.4  18.7   165  35.6  20.5  53.8
2017-03-23 11:04  14.8  17.7   158  35.6  20.6  54.1
2017-03-23 11:02  15.9  17.7   159  35.6  20.5  53.8
2017-03-23 11:00  15.4  17.5   158  35.6  21.2  55.4
2017-03-23 10:58  14.2  16.7   157  35.2  20.9  55.5
2017-03-23 10:56  14.4  17.1   150  35.1  20.8  55.6
2017-03-23 10:54  14.8  17.5   156  35.1  20.9  55.9
2017-03-23 10:52  14.0  17.1   154  34.9  21.0  56.6
2017-03-23 10:50  13.4  17.5   159  34.9  21.5  57.9
2017-03-23 10:48  13.0  17.7   160  34.9  20.7  55.8
2017-03-23 10:46  15.9  17.9   161  34.9  20.0  54.2
2017-03-23 10:44  16.5  18.3   159  34.9  19.5  53.0
2017-03-23 10:42  17.3  19.2   162  34.9  20.0  54.2
2017-03-23 10:40  15.9  18.1   157  34.9  21.3  57.3
2017-03-23 10:38  16.1  17.9   157  34.7  20.4  55.5
2017-03-23 10:36  13.4  17.9   152  34.7  22.4  60.5
2017-03-23 10:34  12.2  16.5   157  34.7  23.0  62.0
2017-03-23 10:32  13.0  16.5   151  34.5  22.6  61.5
2017-03-23 10:30  14.4  18.3   159  34.3  21.1  58.0
2017-03-23 10:28  17.9  19.4   149  34.3  20.7  57.2
2017-03-23 10:26  15.7  19.1   148  34.3  21.9  60.0
2017-03-23 10:24  16.1  19.8   150  34.3  21.5  59.1
2017-03-23 10:22  14.0  18.1   153  34.3  21.7  59.5
2017-03-23 10:20  16.3  18.7   151  34.2  20.9  58.0
2017-03-23 10:18  17.7  19.2   148  34.2  20.9  58.1
2017-03-23 10:16  13.4  18.1   155  34.2  21.9  60.5
2017-03-23 10:14  13.8  17.9   160  34.2  21.0  58.2
2017-03-23 10:12  16.1  18.7   158  34.2  20.9  58.0
2017-03-23 10:10  14.2  17.7   151  34.2  21.7  59.9
2017-03-23 10:08  15.7  18.9   155  34.0  21.0  58.6
2017-03-23 10:06  15.6  20.0   155  34.0  20.7  57.9
2017-03-23 10:04  16.1  20.2   151  34.0  20.3  57.0
2017-03-23 10:02  16.7  19.8   150  34.0  21.6  60.2
2017-03-23 10:00  15.6  18.9   152  34.0  21.2  59.2
2017-03-23 09:58  16.5  19.6   159  34.0  20.6  57.6
2017-03-23 09:56  15.7  20.8   150  34.0  21.7  60.4
2017-03-23 09:54  16.9  19.8   146  33.8  20.8  58.5
2017-03-23 09:52  18.5  20.6   146  33.8  20.8  58.5
2017-03-23 09:50  17.1  19.4   145  33.8  20.9  58.8
2017-03-23 09:48  17.3  20.4   142  33.6  21.2  59.9
2017-03-23 09:46  18.3  20.8   145  33.6  20.1  57.4
2017-03-23 09:44  20.0  21.8   144  33.6  20.6  58.4
2017-03-23 09:42  19.2  21.0   143  33.4  20.1  57.7
2017-03-23 09:40  18.3  21.2   146  33.6  20.5  58.2
2017-03-23 09:38  15.7  18.7   153  33.6  21.2  59.9
2017-03-23 09:36  16.5  18.5   160  33.6  21.4  60.6
2017-03-23 09:34  16.1  20.0   157  33.4  20.7  59.3
2017-03-23 09:32  16.7  20.8   155  33.4  20.5  58.6
2017-03-23 09:30  20.2  22.6   154  33.3  19.4  56.3
2017-03-23 09:28  19.1  22.0   154  33.3  19.9  57.6
2017-03-23 09:26  19.6  22.2   158  33.3  19.7  57.1
2017-03-23 09:24  19.4  23.3   159  33.3  20.5  59.1
2017-03-23 09:22  16.3  19.4   159  33.4  21.5  61.3
2017-03-23 09:20  15.2  19.6   159  33.4  21.9  62.3
2017-03-23 09:18  15.4  18.7   157  33.3  21.6  61.9
2017-03-23 09:16  15.7  19.2   159  33.3  21.7  62.3
2017-03-23 09:14  17.3  20.6   163  33.3  20.6  59.3
2017-03-23 09:12  18.5  22.0   158  33.1  20.7  60.1
2017-03-23 09:10  18.3  21.2   156  33.3  21.5  61.7
2017-03-23 09:08  14.4  17.9   147  33.3  22.1  63.2
2017-03-23 09:06  13.8  19.2   153  33.3  22.2  63.5
2017-03-23 09:04  19.1  21.4   152  33.1  20.8  60.2
2017-03-23 09:02  19.2  21.8   146  33.1  20.8  60.4
2017-03-23 09:00  19.2  21.8   155  33.1  20.8  60.2
2017-03-23 08:58  17.9  21.8   152  32.9  20.5  60.0
2017-03-23 08:56  18.9  22.0   157  33.1  20.8  60.3
2017-03-23 08:54  18.5  22.9   146  33.3  22.0  62.9
2017-03-23 08:52  18.5  21.8   145  33.3  22.3  63.9
2017-03-23 08:50  17.3  22.0   149  33.1  21.6  62.5
2017-03-23 08:48  21.0  22.9   144  32.9  20.6  60.1
2017-03-23 08:46  21.4  24.1   144  33.1  21.0  60.8
2017-03-23 08:44  18.3  21.6   152  32.9  20.9  61.0
2017-03-23 08:42  17.9  21.4   150  33.1  21.5  62.0
2017-03-23 08:40  17.7  20.0   144  33.3  22.5  64.3
2017-03-23 08:38  17.7  20.2   148  33.3  22.0  62.9
2017-03-23 08:36  18.1  20.4   150  33.3  21.8  62.5
2017-03-23 08:34  18.1  22.2   145  33.3  22.1  63.2
2017-03-23 08:32  17.1  22.7   153  33.1  21.1  61.1
2017-03-23 08:30  17.5  21.6   156  33.1  21.2  61.3
2017-03-23 08:28  19.2  22.9   154  33.1  21.0  60.7
2017-03-23 08:26  20.6  23.9   152  33.1  20.4  59.3
2017-03-23 08:24  19.8  23.3   152  33.1  20.8  60.3
2017-03-23 08:22  21.2  25.3   153  32.9  19.5  57.4
2017-03-23 08:20  19.2  24.7   152  33.1  20.7  60.0
2017-03-23 08:18  19.6  23.3   149  33.1  21.0  60.9
2017-03-23 08:16  20.8  23.9   150  32.9  20.9  61.0
2017-03-23 08:14  21.0  23.1   145  32.9  20.6  60.1
2017-03-23 08:12  20.2  22.9   150  32.9  20.4  59.7
2017-03-23 08:10  21.2  23.7   149  32.9  20.8  60.7
2017-03-23 08:08  19.2  22.0   151  32.9  21.4  62.2
2017-03-23 08:06  18.5  22.2   152  32.9  20.8  60.8